createdAt,value
2022-07-29T00:02:26.332Z,13.15
2022-07-29T00:05:01.761Z,6.78
2022-07-29T00:07:37.066Z,8.10
2022-07-29T00:10:11.319Z,6.55
2022-07-29T00:12:46.984Z,9.65
2022-07-29T00:15:20.627Z,9.35
2022-07-29T00:20:29.039Z,8.93
2022-07-29T00:25:35.877Z,5.45
2022-07-29T00:30:44.253Z,6.72
2022-07-29T00:33:19.315Z,9.15
2022-07-29T00:35:51.881Z,7.28
2022-07-29T00:38:26.937Z,8.90
2022-07-29T00:41:00.559Z,7.85
2022-07-29T00:46:07.996Z,6.45
2022-07-29T00:48:43.055Z,8.40
2022-07-29T00:51:17.378Z,5.63
2022-07-29T00:53:52.122Z,10.25
2022-07-29T00:56:25.842Z,9.18
2022-07-29T00:59:00.091Z,8.40
2022-07-29T01:01:33.760Z,8.15
2022-07-29T01:06:43.947Z,8.30
2022-07-29T01:09:42.143Z,16.90
2022-07-29T01:12:14.821Z,8.68
2022-07-29T01:14:50.163Z,12.43
2022-07-29T01:17:29.248Z,10.48
2022-07-29T01:20:09.750Z,12.25
2022-07-29T01:23:08.396Z,8.02
2022-07-29T01:26:16.341Z,10.38
2022-07-29T01:29:08.970Z,11.07
2022-07-29T01:31:58.775Z,7.35
2022-07-29T01:34:41.992Z,7.00
2022-07-29T01:37:22.190Z,9.68
2022-07-29T01:39:58.794Z,10.20
2022-07-29T01:42:38.980Z,7.38
2022-07-29T01:45:19.357Z,10.00
2022-07-29T01:47:59.621Z,7.70
2022-07-29T01:50:37.638Z,10.75
2022-07-29T01:53:15.160Z,6.22
2022-07-29T01:55:49.162Z,7.13
2022-07-29T01:58:25.533Z,6.55
2022-07-29T02:01:02.181Z,9.23
2022-07-29T02:03:38.825Z,10.57
2022-07-29T02:06:14.105Z,8.57
2022-07-29T02:08:49.494Z,14.75
2022-07-29T02:11:23.276Z,9.82
2022-07-29T02:14:00.466Z,7.85
2022-07-29T02:16:38.442Z,13.15
2022-07-29T02:19:12.823Z,9.95
2022-07-29T02:21:47.981Z,13.63
2022-07-29T02:24:22.475Z,10.68
2022-07-29T02:26:59.069Z,12.98
2022-07-29T02:29:34.619Z,9.60
2022-07-29T02:32:12.752Z,9.80
2022-07-29T02:34:50.906Z,8.45
2022-07-29T02:37:26.294Z,9.13
2022-07-29T02:40:01.466Z,15.25
2022-07-29T02:42:38.818Z,9.13
2022-07-29T02:45:14.577Z,9.23
2022-07-29T02:50:32.261Z,10.05
2022-07-29T02:53:17.365Z,9.32
2022-07-29T02:55:57.909Z,7.03
2022-07-29T02:58:35.002Z,9.77
2022-07-29T03:01:19.429Z,16.02
2022-07-29T03:03:57.484Z,10.43
2022-07-29T03:06:37.883Z,12.40
2022-07-29T03:09:14.696Z,7.85
2022-07-29T03:11:50.405Z,11.30
2022-07-29T03:14:25.344Z,12.23
2022-07-29T03:16:59.766Z,8.00
2022-07-29T03:19:35.441Z,9.75
2022-07-29T03:22:09.703Z,8.52
2022-07-29T03:24:43.288Z,11.05
2022-07-29T03:29:50.692Z,9.43
2022-07-29T03:32:25.308Z,7.82
2022-07-29T03:35:00.670Z,6.25
2022-07-29T03:37:34.736Z,11.38
2022-07-29T03:40:12.537Z,10.57
2022-07-29T03:42:48.184Z,9.57
2022-07-29T03:45:24.479Z,7.75
2022-07-29T03:48:03.265Z,14.48
2022-07-29T03:50:38.660Z,8.43
2022-07-29T03:53:12.449Z,14.02
2022-07-29T03:55:49.308Z,13.88
2022-07-29T03:58:23.646Z,8.57
2022-07-29T04:00:58.212Z,11.18
2022-07-29T04:03:32.417Z,9.57
2022-07-29T04:06:09.119Z,13.57
2022-07-29T04:08:42.733Z,12.77
2022-07-29T04:13:52.773Z,9.25
2022-07-29T04:19:00.290Z,12.93
2022-07-29T04:21:39.919Z,9.20
2022-07-29T04:24:14.368Z,13.23
2022-07-29T04:26:48.356Z,11.38
2022-07-29T04:29:22.203Z,16.05
2022-07-29T04:31:55.944Z,11.55
2022-07-29T04:37:04.302Z,7.97
2022-07-29T04:39:41.044Z,12.32
2022-07-29T04:42:14.827Z,13.15
2022-07-29T04:44:50.918Z,11.18
2022-07-29T04:47:25.635Z,7.15
2022-07-29T04:52:34.027Z,10.03
2022-07-29T04:55:08.554Z,8.18
2022-07-29T04:57:42.296Z,8.07
2022-07-29T05:00:16.879Z,14.40
2022-07-29T05:02:50.630Z,12.60
2022-07-29T05:05:34.323Z,9.60
2022-07-29T05:08:09.447Z,15.65
2022-07-29T05:10:43.128Z,11.48
2022-07-29T05:15:53.287Z,8.75
2022-07-29T05:18:26.947Z,12.35
2022-07-29T05:23:35.336Z,15.10
2022-07-29T05:26:08.942Z,15.88
2022-07-29T05:28:42.548Z,11.80
2022-07-29T05:31:18.705Z,12.00
2022-07-29T05:33:52.562Z,13.65
2022-07-29T05:36:30.432Z,8.63
2022-07-29T05:39:14.146Z,8.40
2022-07-29T05:41:51.879Z,12.70
2022-07-29T05:44:28.564Z,9.18
2022-07-29T05:47:02.279Z,14.07
2022-07-29T05:49:36.142Z,10.90
2022-07-29T05:52:12.400Z,8.75
2022-07-29T05:54:47.548Z,6.38
2022-07-29T05:57:22.255Z,7.28
2022-07-29T05:59:57.658Z,5.78
2022-07-29T06:02:31.285Z,5.85
2022-07-29T06:05:06.101Z,5.63
2022-07-29T06:07:50.005Z,9.77
2022-07-29T06:10:27.091Z,7.72
2022-07-29T06:13:00.926Z,11.50
2022-07-29T06:15:34.707Z,11.63
2022-07-29T06:18:11.115Z,7.30
2022-07-29T06:20:44.888Z,5.38
2022-07-29T06:23:18.560Z,7.43
2022-07-29T06:25:56.072Z,5.40
2022-07-29T06:28:29.753Z,8.25
2022-07-29T06:31:03.569Z,5.75
2022-07-29T06:33:41.425Z,5.88
2022-07-29T06:36:15.561Z,7.43
2022-07-29T06:38:51.290Z,5.13
2022-07-29T06:41:28.691Z,4.47
2022-07-29T06:44:02.496Z,7.38
2022-07-29T06:46:36.396Z,6.25
2022-07-29T06:49:10.565Z,4.57
2022-07-29T06:51:44.768Z,3.70
2022-07-29T06:54:18.479Z,7.15
2022-07-29T06:56:53.821Z,7.43
2022-07-29T06:59:35.076Z,9.65
2022-07-29T07:02:09.401Z,13.25
2022-07-29T07:04:43.145Z,5.40
2022-07-29T07:07:16.813Z,7.90
2022-07-29T07:09:51.766Z,6.28
2022-07-29T07:12:26.743Z,9.23
2022-07-29T07:15:00.516Z,5.15
2022-07-29T07:17:34.082Z,5.78
2022-07-29T07:20:08.816Z,7.15
2022-07-29T07:22:42.697Z,7.32
2022-07-29T07:25:18.561Z,6.35
2022-07-29T07:27:53.665Z,3.17
2022-07-29T07:30:28.528Z,6.88
2022-07-29T07:33:03.092Z,4.45
2022-07-29T07:35:36.906Z,5.70
2022-07-29T07:38:10.572Z,5.43
2022-07-29T07:40:44.315Z,3.05
2022-07-29T07:43:19.419Z,7.65
2022-07-29T07:45:54.113Z,4.32
2022-07-29T07:48:28.104Z,4.78
2022-07-29T07:51:01.747Z,4.38
2022-07-29T07:53:35.537Z,5.22
2022-07-29T07:56:11.317Z,2.08
2022-07-29T07:58:47.078Z,4.40
2022-07-29T08:01:24.213Z,4.45
2022-07-29T08:03:58.016Z,5.95
2022-07-29T08:06:31.670Z,2.83
2022-07-29T08:09:27.804Z,3.53
2022-07-29T08:12:00.124Z,2.40
2022-07-29T08:14:35.589Z,6.88
2022-07-29T08:17:09.354Z,7.97
2022-07-29T08:19:43.012Z,6.38
2022-07-29T08:22:16.688Z,4.03
2022-07-29T08:24:55.697Z,7.82
2022-07-29T08:27:47.295Z,3.03
2022-07-29T08:30:22.584Z,5.20
2022-07-29T08:33:02.660Z,6.68
2022-07-29T08:35:36.588Z,4.30
2022-07-29T08:38:11.078Z,7.60
2022-07-29T08:40:44.997Z,2.88
2022-07-29T08:43:18.660Z,4.00
2022-07-29T08:45:54.406Z,4.18
2022-07-29T08:48:28.134Z,4.78
2022-07-29T08:51:03.077Z,7.18
2022-07-29T08:53:39.204Z,3.67
2022-07-29T08:56:15.555Z,3.80
2022-07-29T08:58:52.302Z,3.65
2022-07-29T09:01:35.769Z,6.07
2022-07-29T09:04:17.184Z,6.47
2022-07-29T09:06:54.476Z,4.18
2022-07-29T09:09:28.508Z,6.13
2022-07-29T09:12:02.440Z,3.35
2022-07-29T09:14:36.237Z,2.80
2022-07-29T09:17:11.407Z,3.15
2022-07-29T09:19:45.333Z,4.90
2022-07-29T09:22:37.665Z,6.68
2022-07-29T09:25:15.836Z,2.03
2022-07-29T09:27:53.070Z,2.35
2022-07-29T09:30:31.692Z,2.13
2022-07-29T09:33:07.426Z,9.00
2022-07-29T09:35:41.989Z,3.10
2022-07-29T09:38:30.476Z,3.38
2022-07-29T09:41:07.385Z,2.85
2022-07-29T09:43:42.410Z,3.63
2022-07-29T09:46:16.856Z,6.60
2022-07-29T09:49:09.143Z,2.95
2022-07-29T09:54:26.789Z,4.35
2022-07-29T09:57:00.714Z,3.60
2022-07-29T09:59:34.631Z,6.68
2022-07-29T10:02:18.902Z,5.57
2022-07-29T10:04:57.666Z,2.00
2022-07-29T10:07:51.776Z,3.95
2022-07-29T10:10:28.992Z,2.42
2022-07-29T10:13:08.796Z,5.38
2022-07-29T10:18:21.124Z,5.40
2022-07-29T10:20:56.586Z,2.67
2022-07-29T10:23:47.113Z,4.57
2022-07-29T10:26:22.234Z,2.80
2022-07-29T10:28:55.937Z,3.05
2022-07-29T10:31:39.172Z,3.00
2022-07-29T10:34:23.059Z,6.60
2022-07-29T10:37:06.290Z,2.58
2022-07-29T10:39:52.749Z,3.13
2022-07-29T10:42:33.373Z,4.38
2022-07-29T10:45:09.055Z,4.15
2022-07-29T10:47:43.793Z,4.35
2022-07-29T10:50:17.611Z,2.55
2022-07-29T10:52:58.948Z,1.40
2022-07-29T10:55:43.760Z,4.65
2022-07-29T10:58:20.084Z,4.18
2022-07-29T11:00:57.646Z,3.50
2022-07-29T11:03:53.660Z,3.13
2022-07-29T11:07:11.920Z,3.13
2022-07-29T11:10:07.163Z,3.42
2022-07-29T11:12:53.889Z,8.23
2022-07-29T11:18:21.759Z,3.95
2022-07-29T11:20:57.622Z,4.55
2022-07-29T11:23:36.801Z,7.60
2022-07-29T11:26:30.147Z,1.67
2022-07-29T11:29:16.751Z,2.78
2022-07-29T11:31:55.860Z,6.68
2022-07-29T11:34:32.093Z,3.55
2022-07-29T11:37:27.657Z,4.05
2022-07-29T11:40:18.418Z,5.68
2022-07-29T11:42:55.069Z,2.83
2022-07-29T11:45:47.134Z,6.10
2022-07-29T11:51:15.032Z,4.38
2022-07-29T11:53:52.477Z,2.95
2022-07-29T11:56:32.809Z,2.15
2022-07-29T11:59:15.177Z,3.05
2022-07-29T12:02:06.864Z,3.63
2022-07-29T12:04:57.290Z,3.70
2022-07-29T12:07:02.107Z,3.25
2022-07-29T12:07:32.595Z,1.55
2022-07-29T12:10:20.201Z,3.90
2022-07-29T12:13:04.290Z,1.88
2022-07-29T12:15:47.014Z,1.88
2022-07-29T12:18:30.086Z,1.77
2022-07-29T12:23:39.171Z,2.65
2022-07-29T12:26:25.285Z,3.78
2022-07-29T12:28:59.385Z,4.55
2022-07-29T12:31:43.829Z,1.63
2022-07-29T12:34:19.075Z,4.90
2022-07-29T12:36:52.915Z,2.25
2022-07-29T12:39:29.164Z,2.75
2022-07-29T12:42:13.986Z,2.78
2022-07-29T12:44:51.276Z,3.65
2022-07-29T12:47:26.465Z,1.80
2022-07-29T12:50:13.697Z,3.92
2022-07-29T12:52:48.578Z,2.50
2022-07-29T12:55:44.028Z,2.15
2022-07-29T12:58:29.631Z,4.63
2022-07-29T13:01:17.475Z,2.08
2022-07-29T13:03:57.737Z,2.90
2022-07-29T13:06:37.261Z,3.63
2022-07-29T13:09:13.334Z,4.30
2022-07-29T13:11:48.971Z,3.63
2022-07-29T13:14:33.534Z,3.22
2022-07-29T13:17:14.573Z,6.25
2022-07-29T13:19:54.815Z,5.65
2022-07-29T13:22:30.409Z,3.38
2022-07-29T13:25:08.044Z,4.72
2022-07-29T13:27:42.131Z,3.08
2022-07-29T13:30:15.899Z,4.20
2022-07-29T13:32:49.736Z,2.35
2022-07-29T13:35:30.808Z,2.72
2022-07-29T13:38:04.432Z,4.03
2022-07-29T13:40:40.659Z,4.60
2022-07-29T13:43:14.466Z,8.35
2022-07-29T13:45:48.099Z,2.65
2022-07-29T13:48:21.894Z,1.95
2022-07-29T13:50:56.905Z,1.75
2022-07-29T13:53:30.585Z,1.95
2022-07-29T13:56:04.191Z,5.07
2022-07-29T13:58:38.056Z,2.78
2022-07-29T14:01:11.655Z,1.63
2022-07-29T14:03:45.903Z,5.75
2022-07-29T14:06:22.844Z,2.85
2022-07-29T14:08:56.998Z,1.52
2022-07-29T14:11:30.792Z,1.08
2022-07-29T14:14:04.686Z,3.65
2022-07-29T14:16:43.049Z,2.88
2022-07-29T14:19:17.599Z,4.70
2022-07-29T14:21:55.243Z,7.18
2022-07-29T14:24:31.287Z,5.50
2022-07-29T14:27:06.455Z,3.42
2022-07-29T14:29:40.567Z,4.50
2022-07-29T14:32:16.105Z,2.70
2022-07-29T14:34:50.950Z,3.63
2022-07-29T14:37:26.023Z,3.10
2022-07-29T14:40:04.098Z,4.00
2022-07-29T14:42:38.729Z,3.22
2022-07-29T14:45:14.074Z,2.65
2022-07-29T14:47:47.652Z,3.42
2022-07-29T14:50:23.330Z,2.92
2022-07-29T14:53:06.791Z,4.05
2022-07-29T14:55:40.660Z,1.75
2022-07-29T14:58:16.670Z,2.38
2022-07-29T15:00:50.864Z,4.32
2022-07-29T15:03:24.576Z,10.88
2022-07-29T15:05:58.670Z,2.25
2022-07-29T15:08:33.879Z,2.90
2022-07-29T15:11:07.612Z,3.95
2022-07-29T15:13:41.256Z,1.40
2022-07-29T15:16:15.156Z,3.58
2022-07-29T15:18:49.243Z,4.50
2022-07-29T15:21:23.083Z,4.45
2022-07-29T15:23:58.321Z,3.80
2022-07-29T15:26:31.947Z,2.22
2022-07-29T15:29:05.698Z,1.35
2022-07-29T15:31:39.581Z,4.60
2022-07-29T15:34:14.396Z,5.30
2022-07-29T15:36:52.784Z,3.72
2022-07-29T15:39:28.457Z,4.88
2022-07-29T15:42:02.199Z,1.77
2022-07-29T15:44:36.378Z,3.03
2022-07-29T15:47:10.102Z,5.40
2022-07-29T15:49:47.788Z,21.83
2022-07-29T15:52:26.156Z,1.55
2022-07-29T15:55:01.560Z,3.10
2022-07-29T15:57:35.197Z,4.03
2022-07-29T16:00:10.284Z,3.90
2022-07-29T16:02:44.096Z,1.73
2022-07-29T16:05:18.048Z,3.05
2022-07-29T16:07:51.701Z,4.60
2022-07-29T16:10:26.928Z,1.77
2022-07-29T16:13:00.498Z,2.42
2022-07-29T16:15:34.285Z,2.50
2022-07-29T16:18:09.054Z,2.95
2022-07-29T16:20:43.556Z,2.47
2022-07-29T16:23:17.180Z,4.82
2022-07-29T16:26:01.131Z,2.58
2022-07-29T16:28:35.457Z,5.05
2022-07-29T16:31:09.407Z,3.83
2022-07-29T16:33:54.817Z,2.60
2022-07-29T16:36:29.568Z,2.33
2022-07-29T16:39:05.118Z,6.05
2022-07-29T16:41:40.443Z,2.22
2022-07-29T16:44:14.488Z,4.65
2022-07-29T16:46:49.380Z,5.32
2022-07-29T16:49:23.706Z,2.25
2022-07-29T16:51:57.432Z,4.13
2022-07-29T16:54:32.587Z,3.20
2022-07-29T16:57:07.751Z,3.10
2022-07-29T16:59:43.542Z,5.25
2022-07-29T17:02:17.505Z,1.55
2022-07-29T17:04:51.625Z,4.65
2022-07-29T17:07:25.511Z,2.20
2022-07-29T17:10:03.399Z,7.65
2022-07-29T17:12:40.555Z,5.47
2022-07-29T17:15:14.610Z,2.35
2022-07-29T17:17:55.204Z,4.78
2022-07-29T17:20:30.299Z,6.47
2022-07-29T17:23:04.193Z,7.50
2022-07-29T17:25:38.071Z,5.45
2022-07-29T17:28:13.199Z,2.35
2022-07-29T17:30:46.939Z,3.03
2022-07-29T17:33:20.945Z,5.30
2022-07-29T17:36:12.273Z,1.67
2022-07-29T17:38:46.087Z,2.17
2022-07-29T17:41:19.692Z,2.33
2022-07-29T17:43:55.528Z,8.55
2022-07-29T17:46:31.884Z,8.07
2022-07-29T17:49:05.939Z,4.28
2022-07-29T17:51:39.877Z,3.97
2022-07-29T17:54:13.684Z,2.40
2022-07-29T17:56:47.932Z,4.22
2022-07-29T17:59:23.160Z,9.00
2022-07-29T18:01:56.916Z,3.38
2022-07-29T18:04:31.703Z,4.50
2022-07-29T18:07:05.438Z,3.13
2022-07-29T18:09:39.254Z,7.07
2022-07-29T18:12:13.016Z,11.43
2022-07-29T18:14:48.369Z,5.13
2022-07-29T18:17:22.164Z,7.07
2022-07-29T18:22:52.105Z,4.45
2022-07-29T18:25:26.262Z,5.03
2022-07-29T18:28:01.418Z,12.45
2022-07-29T18:30:38.104Z,5.22
2022-07-29T18:33:22.920Z,5.22
2022-07-29T18:36:07.642Z,3.10
2022-07-29T18:38:45.369Z,4.88
2022-07-29T18:41:19.125Z,6.82
2022-07-29T18:43:55.137Z,2.20
2022-07-29T18:46:30.398Z,3.83
2022-07-29T18:49:04.634Z,4.43
2022-07-29T18:51:38.381Z,3.67
2022-07-29T18:54:14.655Z,2.95
2022-07-29T18:56:51.582Z,7.53
2022-07-29T18:59:25.211Z,4.32
2022-07-29T19:02:00.513Z,4.15
2022-07-29T19:04:34.203Z,4.70
2022-07-29T19:07:07.774Z,5.07
2022-07-29T19:09:49.099Z,4.80
2022-07-29T19:12:23.520Z,3.08
2022-07-29T19:14:57.204Z,5.97
2022-07-29T19:17:32.848Z,5.35
2022-07-29T19:20:07.570Z,9.00
2022-07-29T19:22:44.207Z,3.83
2022-07-29T19:25:19.669Z,2.78
2022-07-29T19:27:53.284Z,4.90
2022-07-29T19:30:26.976Z,3.90
2022-07-29T19:33:02.174Z,3.47
2022-07-29T19:35:36.831Z,5.85
2022-07-29T19:38:10.941Z,6.22
2022-07-29T19:40:47.078Z,4.85
2022-07-29T19:43:50.863Z,5.55
2022-07-29T19:46:14.444Z,5.78
2022-07-29T19:48:57.829Z,5.75
2022-07-29T19:51:31.620Z,7.85
2022-07-29T19:54:08.696Z,5.18
2022-07-29T19:56:45.255Z,5.80
2022-07-29T19:59:19.319Z,5.00
2022-07-29T20:01:57.673Z,5.70
2022-07-29T20:04:34.481Z,7.90
2022-07-29T20:07:08.877Z,7.53
2022-07-29T20:09:43.427Z,7.28
2022-07-29T20:12:17.512Z,5.45
2022-07-29T20:14:51.826Z,5.15
2022-07-29T20:17:28.834Z,5.93
2022-07-29T20:20:04.533Z,7.68
2022-07-29T20:22:38.831Z,7.32
2022-07-29T20:25:16.131Z,9.98
2022-07-29T20:27:52.469Z,10.15
2022-07-29T20:30:26.401Z,7.68
2022-07-29T20:33:03.809Z,5.70
2022-07-29T20:35:39.485Z,7.55
2022-07-29T20:38:18.044Z,16.10
2022-07-29T20:40:53.482Z,9.80
2022-07-29T20:43:29.153Z,7.63
2022-07-29T20:46:03.298Z,7.03
2022-07-29T20:48:37.049Z,3.13
2022-07-29T20:51:12.375Z,4.57
2022-07-29T20:53:46.053Z,4.55
2022-07-29T20:56:21.592Z,4.15
2022-07-29T20:58:55.443Z,8.10
2022-07-29T21:01:29.115Z,5.70
2022-07-29T21:04:03.678Z,6.47
2022-07-29T21:06:41.276Z,5.93
2022-07-29T21:09:15.171Z,4.57
2022-07-29T21:11:55.987Z,8.70
2022-07-29T21:14:48.037Z,5.10
2022-07-29T21:17:22.633Z,3.55
2022-07-29T21:19:56.599Z,6.70
2022-07-29T21:22:33.317Z,4.03
2022-07-29T21:25:07.670Z,4.28
2022-07-29T21:27:58.811Z,7.18
2022-07-29T21:30:32.389Z,7.55
2022-07-29T21:33:06.561Z,9.02
2022-07-29T21:36:14.984Z,5.32
2022-07-29T21:38:35.675Z,10.75
2022-07-29T21:41:10.973Z,5.82
2022-07-29T21:43:44.691Z,5.03
2022-07-29T21:46:18.558Z,9.30
2022-07-29T21:48:52.342Z,7.00
2022-07-29T21:51:26.190Z,6.00
2022-07-29T21:54:01.226Z,3.13
2022-07-29T21:56:35.324Z,3.65
2022-07-29T21:59:10.544Z,3.15
2022-07-29T22:01:46.820Z,3.90
2022-07-29T22:04:20.717Z,3.22
2022-07-29T22:06:54.530Z,4.70
2022-07-29T22:09:29.820Z,4.22
2022-07-29T22:12:06.447Z,4.03
2022-07-29T22:14:40.044Z,5.88
2022-07-29T22:17:15.848Z,5.53
2022-07-29T22:19:54.593Z,4.65
2022-07-29T22:22:28.288Z,4.65
2022-07-29T22:25:03.477Z,3.30
2022-07-29T22:27:37.450Z,3.38
2022-07-29T22:30:12.191Z,2.45
2022-07-29T22:32:45.829Z,3.78
2022-07-29T22:35:19.505Z,2.28
2022-07-29T22:37:53.482Z,3.00
2022-07-29T22:40:30.762Z,3.55
2022-07-29T22:43:06.394Z,2.83
2022-07-29T22:45:40.154Z,3.15
2022-07-29T22:48:14.017Z,3.17
2022-07-29T22:50:47.934Z,4.93
2022-07-29T22:53:24.540Z,4.28
2022-07-29T22:56:01.491Z,3.65
2022-07-29T22:58:35.129Z,2.70
2022-07-29T23:01:09.196Z,3.58
2022-07-29T23:03:50.892Z,5.43
2022-07-29T23:06:25.260Z,2.90
2022-07-29T23:08:59.039Z,4.07
2022-07-29T23:11:34.274Z,3.53
2022-07-29T23:14:09.688Z,3.03
2022-07-29T23:16:46.651Z,2.67
2022-07-29T23:19:23.341Z,1.70
2022-07-29T23:21:56.884Z,2.72
2022-07-29T23:24:30.482Z,7.47
2022-07-29T23:27:11.387Z,2.22
2022-07-29T23:29:45.004Z,2.50
2022-07-29T23:32:18.607Z,4.13
2022-07-29T23:34:52.262Z,4.07
2022-07-29T23:37:26.846Z,3.10
2022-07-29T23:40:01.283Z,3.90
2022-07-29T23:42:38.797Z,2.67
2022-07-29T23:45:13.678Z,5.22
2022-07-29T23:47:49.404Z,4.05
2022-07-29T23:50:23.016Z,4.88
2022-07-29T23:52:58.930Z,4.53
2022-07-29T23:55:36.686Z,5.28
2022-07-29T23:58:14.080Z,3.78
